sensor_id;sensor_type;location;lat;lon;timestamp;P1;durP1;ratioP1;P2;durP2;ratioP2
72590;SDS011;60625;51.212;5.952;2022-12-10T00:03:08;45.10;;;16.20;;
72590;SDS011;60625;51.212;5.952;2022-12-10T00:08:08;41.80;;;17.20;;
72590;SDS011;60625;51.212;5.952;2022-12-10T00:13:09;44.10;;;18.10;;
72590;SDS011;60625;51.212;5.952;2022-12-10T00:18:09;37.80;;;15.40;;
72590;SDS011;60625;51.212;5.952;2022-12-10T00:23:10;40.70;;;17.00;;
72590;SDS011;60625;51.212;5.952;2022-12-10T00:28:11;46.10;;;16.80;;
72590;SDS011;60625;51.212;5.952;2022-12-10T00:33:11;42.60;;;17.30;;
72590;SDS011;60625;51.212;5.952;2022-12-10T00:38:12;47.60;;;18.50;;
72590;SDS011;60625;51.212;5.952;2022-12-10T00:43:12;46.80;;;19.00;;
72590;SDS011;60625;51.212;5.952;2022-12-10T00:48:13;47.50;;;18.60;;
72590;SDS011;60625;51.212;5.952;2022-12-10T00:53:14;42.40;;;17.10;;
72590;SDS011;60625;51.212;5.952;2022-12-10T00:58:14;45.80;;;17.90;;
72590;SDS011;60625;51.212;5.952;2022-12-10T01:03:15;41.50;;;16.30;;
72590;SDS011;60625;51.212;5.952;2022-12-10T01:08:17;42.50;;;16.00;;
72590;SDS011;60625;51.212;5.952;2022-12-10T01:13:18;39.60;;;14.80;;
72590;SDS011;60625;51.212;5.952;2022-12-10T01:18:19;41.50;;;16.30;;
72590;SDS011;60625;51.212;5.952;2022-12-10T01:23:19;42.50;;;16.00;;
72590;SDS011;60625;51.212;5.952;2022-12-10T01:28:20;39.10;;;14.70;;
72590;SDS011;60625;51.212;5.952;2022-12-10T01:33:21;44.60;;;15.60;;
72590;SDS011;60625;51.212;5.952;2022-12-10T01:38:22;42.50;;;16.70;;
72590;SDS011;60625;51.212;5.952;2022-12-10T01:43:23;46.40;;;18.20;;
72590;SDS011;60625;51.212;5.952;2022-12-10T01:48:23;47.00;;;19.20;;
72590;SDS011;60625;51.212;5.952;2022-12-10T01:53:24;48.80;;;18.40;;
72590;SDS011;60625;51.212;5.952;2022-12-10T01:58:25;47.50;;;18.50;;
72590;SDS011;60625;51.212;5.952;2022-12-10T02:09:22;45.90;;;17.30;;
72590;SDS011;60625;51.212;5.952;2022-12-10T02:14:32;41.50;;;16.30;;
72590;SDS011;60625;51.212;5.952;2022-12-10T02:25:06;54.60;;;20.20;;
72590;SDS011;60625;51.212;5.952;2022-12-10T02:30:09;53.40;;;20.10;;
72590;SDS011;60625;51.212;5.952;2022-12-10T02:35:21;53.90;;;19.10;;
72590;SDS011;60625;51.212;5.952;2022-12-10T02:40:30;50.90;;;17.30;;
72590;SDS011;60625;51.212;5.952;2022-12-10T02:45:33;52.90;;;19.80;;
72590;SDS011;60625;51.212;5.952;2022-12-10T02:50:35;51.80;;;20.30;;
72590;SDS011;60625;51.212;5.952;2022-12-10T03:06:38;50.60;;;18.10;;
72590;SDS011;60625;51.212;5.952;2022-12-10T03:11:43;48.40;;;18.80;;
72590;SDS011;60625;51.212;5.952;2022-12-10T03:16:50;56.20;;;20.90;;
72590;SDS011;60625;51.212;5.952;2022-12-10T03:21:54;56.40;;;21.30;;
72590;SDS011;60625;51.212;5.952;2022-12-10T03:26:58;50.60;;;19.80;;
72590;SDS011;60625;51.212;5.952;2022-12-10T03:32:00;60.10;;;22.10;;
72590;SDS011;60625;51.212;5.952;2022-12-10T03:37:03;69.30;;;23.00;;
72590;SDS011;60625;51.212;5.952;2022-12-10T03:42:05;63.30;;;23.60;;
72590;SDS011;60625;51.212;5.952;2022-12-10T03:47:07;66.60;;;24.10;;
72590;SDS011;60625;51.212;5.952;2022-12-10T03:52:10;63.00;;;23.00;;
72590;SDS011;60625;51.212;5.952;2022-12-10T03:57:12;63.00;;;20.50;;
72590;SDS011;60625;51.212;5.952;2022-12-10T04:02:12;63.10;;;21.00;;
72590;SDS011;60625;51.212;5.952;2022-12-10T04:07:13;61.10;;;22.10;;
72590;SDS011;60625;51.212;5.952;2022-12-10T04:12:13;64.60;;;22.50;;
72590;SDS011;60625;51.212;5.952;2022-12-10T04:17:14;63.30;;;24.00;;
72590;SDS011;60625;51.212;5.952;2022-12-10T04:22:14;56.30;;;19.70;;
72590;SDS011;60625;51.212;5.952;2022-12-10T04:27:38;62.20;;;20.00;;
72590;SDS011;60625;51.212;5.952;2022-12-10T04:32:39;66.40;;;24.70;;
72590;SDS011;60625;51.212;5.952;2022-12-10T04:37:39;67.20;;;24.90;;
72590;SDS011;60625;51.212;5.952;2022-12-10T04:42:41;75.80;;;25.70;;
72590;SDS011;60625;51.212;5.952;2022-12-10T04:47:41;66.80;;;23.90;;
72590;SDS011;60625;51.212;5.952;2022-12-10T04:52:41;66.20;;;24.60;;
72590;SDS011;60625;51.212;5.952;2022-12-10T04:57:42;66.50;;;26.20;;
72590;SDS011;60625;51.212;5.952;2022-12-10T05:02:42;63.30;;;25.10;;
72590;SDS011;60625;51.212;5.952;2022-12-10T05:07:43;64.40;;;25.20;;
72590;SDS011;60625;51.212;5.952;2022-12-10T05:12:43;68.00;;;25.20;;
72590;SDS011;60625;51.212;5.952;2022-12-10T05:17:44;66.30;;;23.80;;
72590;SDS011;60625;51.212;5.952;2022-12-10T05:22:44;68.50;;;25.30;;
72590;SDS011;60625;51.212;5.952;2022-12-10T05:28:03;64.40;;;24.60;;
72590;SDS011;60625;51.212;5.952;2022-12-10T05:33:04;68.50;;;25.40;;
72590;SDS011;60625;51.212;5.952;2022-12-10T05:38:04;70.70;;;26.10;;
72590;SDS011;60625;51.212;5.952;2022-12-10T05:43:05;69.80;;;26.70;;
72590;SDS011;60625;51.212;5.952;2022-12-10T05:48:06;70.20;;;25.30;;
72590;SDS011;60625;51.212;5.952;2022-12-10T05:53:07;60.60;;;21.70;;
72590;SDS011;60625;51.212;5.952;2022-12-10T05:58:07;60.90;;;24.60;;
72590;SDS011;60625;51.212;5.952;2022-12-10T06:03:08;62.20;;;24.10;;
72590;SDS011;60625;51.212;5.952;2022-12-10T06:08:08;68.20;;;26.70;;
72590;SDS011;60625;51.212;5.952;2022-12-10T06:13:09;62.30;;;22.70;;
72590;SDS011;60625;51.212;5.952;2022-12-10T06:18:09;61.50;;;24.50;;
72590;SDS011;60625;51.212;5.952;2022-12-10T06:23:10;62.00;;;23.10;;
72590;SDS011;60625;51.212;5.952;2022-12-10T06:28:10;58.10;;;21.60;;
72590;SDS011;60625;51.212;5.952;2022-12-10T06:33:11;64.40;;;24.10;;
72590;SDS011;60625;51.212;5.952;2022-12-10T06:38:11;65.40;;;24.10;;
72590;SDS011;60625;51.212;5.952;2022-12-10T06:43:12;64.30;;;25.70;;
72590;SDS011;60625;51.212;5.952;2022-12-10T06:48:12;64.20;;;25.20;;
72590;SDS011;60625;51.212;5.952;2022-12-10T06:53:13;64.60;;;22.80;;
72590;SDS011;60625;51.212;5.952;2022-12-10T06:58:14;61.20;;;23.30;;
72590;SDS011;60625;51.212;5.952;2022-12-10T07:03:14;63.60;;;24.40;;
72590;SDS011;60625;51.212;5.952;2022-12-10T07:08:15;58.80;;;21.90;;
72590;SDS011;60625;51.212;5.952;2022-12-10T07:13:17;71.50;;;25.50;;
72590;SDS011;60625;51.212;5.952;2022-12-10T07:18:18;69.50;;;26.50;;
72590;SDS011;60625;51.212;5.952;2022-12-10T07:23:19;68.40;;;25.90;;
72590;SDS011;60625;51.212;5.952;2022-12-10T07:28:19;63.70;;;24.30;;
72590;SDS011;60625;51.212;5.952;2022-12-10T07:33:20;76.50;;;27.00;;
72590;SDS011;60625;51.212;5.952;2022-12-10T07:38:21;74.70;;;29.00;;
72590;SDS011;60625;51.212;5.952;2022-12-10T07:43:21;72.70;;;27.20;;
72590;SDS011;60625;51.212;5.952;2022-12-10T07:48:21;67.60;;;26.70;;
72590;SDS011;60625;51.212;5.952;2022-12-10T07:53:23;65.60;;;25.10;;
72590;SDS011;60625;51.212;5.952;2022-12-10T07:58:23;67.10;;;26.00;;
72590;SDS011;60625;51.212;5.952;2022-12-10T08:03:24;70.90;;;25.10;;
72590;SDS011;60625;51.212;5.952;2022-12-10T08:08:25;66.50;;;26.30;;
72590;SDS011;60625;51.212;5.952;2022-12-10T08:13:26;68.10;;;23.50;;
72590;SDS011;60625;51.212;5.952;2022-12-10T08:18:27;64.20;;;24.30;;
72590;SDS011;60625;51.212;5.952;2022-12-10T08:23:27;68.00;;;27.10;;
72590;SDS011;60625;51.212;5.952;2022-12-10T08:28:29;69.50;;;26.70;;
72590;SDS011;60625;51.212;5.952;2022-12-10T08:33:33;71.50;;;26.70;;
72590;SDS011;60625;51.212;5.952;2022-12-10T08:38:35;64.80;;;24.40;;
72590;SDS011;60625;51.212;5.952;2022-12-10T08:43:36;75.50;;;26.90;;
72590;SDS011;60625;51.212;5.952;2022-12-10T08:48:37;79.50;;;27.10;;
72590;SDS011;60625;51.212;5.952;2022-12-10T08:53:38;69.70;;;25.60;;
72590;SDS011;60625;51.212;5.952;2022-12-10T08:58:39;69.40;;;25.70;;
72590;SDS011;60625;51.212;5.952;2022-12-10T09:03:40;109.30;;;29.80;;
72590;SDS011;60625;51.212;5.952;2022-12-10T09:08:41;64.70;;;25.50;;
72590;SDS011;60625;51.212;5.952;2022-12-10T09:13:42;73.40;;;25.80;;
72590;SDS011;60625;51.212;5.952;2022-12-10T09:18:43;61.50;;;23.70;;
72590;SDS011;60625;51.212;5.952;2022-12-10T09:23:43;53.80;;;23.10;;
72590;SDS011;60625;51.212;5.952;2022-12-10T09:28:45;61.70;;;24.80;;
72590;SDS011;60625;51.212;5.952;2022-12-10T09:33:48;64.60;;;23.90;;
72590;SDS011;60625;51.212;5.952;2022-12-10T09:38:49;57.30;;;23.70;;
72590;SDS011;60625;51.212;5.952;2022-12-10T09:55:02;63.30;;;23.70;;
72590;SDS011;60625;51.212;5.952;2022-12-10T10:05:26;60.50;;;23.90;;
72590;SDS011;60625;51.212;5.952;2022-12-10T10:10:36;61.70;;;23.20;;
72590;SDS011;60625;51.212;5.952;2022-12-10T10:15:43;63.20;;;24.30;;
72590;SDS011;60625;51.212;5.952;2022-12-10T10:20:45;60.70;;;23.40;;
72590;SDS011;60625;51.212;5.952;2022-12-10T10:25:46;65.20;;;24.30;;
72590;SDS011;60625;51.212;5.952;2022-12-10T10:30:47;57.80;;;22.80;;
72590;SDS011;60625;51.212;5.952;2022-12-10T10:35:54;60.10;;;22.60;;
72590;SDS011;60625;51.212;5.952;2022-12-10T10:40:58;55.40;;;22.30;;
72590;SDS011;60625;51.212;5.952;2022-12-10T10:46:02;58.00;;;22.00;;
72590;SDS011;60625;51.212;5.952;2022-12-10T10:56:40;58.30;;;22.50;;
72590;SDS011;60625;51.212;5.952;2022-12-10T11:01:50;60.10;;;23.30;;
72590;SDS011;60625;51.212;5.952;2022-12-10T11:06:54;64.10;;;24.00;;
72590;SDS011;60625;51.212;5.952;2022-12-10T11:12:21;61.20;;;21.90;;
72590;SDS011;60625;51.212;5.952;2022-12-10T11:17:28;65.60;;;24.00;;
72590;SDS011;60625;51.212;5.952;2022-12-10T11:22:31;54.90;;;20.50;;
72590;SDS011;60625;51.212;5.952;2022-12-10T11:27:45;62.70;;;22.20;;
72590;SDS011;60625;51.212;5.952;2022-12-10T11:44:01;62.30;;;23.00;;
72590;SDS011;60625;51.212;5.952;2022-12-10T11:49:40;60.80;;;22.50;;
72590;SDS011;60625;51.212;5.952;2022-12-10T11:54:52;68.10;;;23.50;;
72590;SDS011;60625;51.212;5.952;2022-12-10T12:00:18;64.10;;;22.00;;
72590;SDS011;60625;51.212;5.952;2022-12-10T12:05:45;58.90;;;21.50;;
72590;SDS011;60625;51.212;5.952;2022-12-10T12:11:05;61.20;;;21.80;;
72590;SDS011;60625;51.212;5.952;2022-12-10T12:21:48;66.30;;;23.00;;
72590;SDS011;60625;51.212;5.952;2022-12-10T12:26:58;54.20;;;21.30;;
72590;SDS011;60625;51.212;5.952;2022-12-10T12:32:09;64.30;;;23.10;;
72590;SDS011;60625;51.212;5.952;2022-12-10T12:37:14;62.90;;;22.70;;
72590;SDS011;60625;51.212;5.952;2022-12-10T12:42:17;65.90;;;21.90;;
72590;SDS011;60625;51.212;5.952;2022-12-10T12:53:23;61.10;;;21.90;;
72590;SDS011;60625;51.212;5.952;2022-12-10T12:58:40;59.00;;;21.10;;
72590;SDS011;60625;51.212;5.952;2022-12-10T13:03:45;70.40;;;27.80;;
72590;SDS011;60625;51.212;5.952;2022-12-10T13:08:53;68.90;;;22.30;;
72590;SDS011;60625;51.212;5.952;2022-12-10T13:14:28;59.70;;;21.50;;
72590;SDS011;60625;51.212;5.952;2022-12-10T13:20:32;62.20;;;20.50;;
72590;SDS011;60625;51.212;5.952;2022-12-10T13:25:54;49.20;;;17.10;;
72590;SDS011;60625;51.212;5.952;2022-12-10T13:41:40;56.00;;;19.70;;
72590;SDS011;60625;51.212;5.952;2022-12-10T13:53:16;55.60;;;20.60;;
72590;SDS011;60625;51.212;5.952;2022-12-10T14:04:15;61.70;;;22.00;;
72590;SDS011;60625;51.212;5.952;2022-12-10T14:10:00;55.40;;;18.60;;
72590;SDS011;60625;51.212;5.952;2022-12-10T14:15:18;55.80;;;20.60;;
72590;SDS011;60625;51.212;5.952;2022-12-10T14:20:24;58.20;;;21.70;;
72590;SDS011;60625;51.212;5.952;2022-12-10T14:25:25;57.10;;;21.40;;
72590;SDS011;60625;51.212;5.952;2022-12-10T14:30:27;58.10;;;19.80;;
72590;SDS011;60625;51.212;5.952;2022-12-10T14:35:28;58.90;;;19.40;;
72590;SDS011;60625;51.212;5.952;2022-12-10T14:40:35;62.10;;;21.20;;
72590;SDS011;60625;51.212;5.952;2022-12-10T14:45:46;53.70;;;20.60;;
72590;SDS011;60625;51.212;5.952;2022-12-10T14:50:51;66.80;;;22.10;;
72590;SDS011;60625;51.212;5.952;2022-12-10T14:55:55;60.40;;;21.90;;
72590;SDS011;60625;51.212;5.952;2022-12-10T15:00:59;58.90;;;20.60;;
72590;SDS011;60625;51.212;5.952;2022-12-10T15:06:02;51.80;;;17.80;;
72590;SDS011;60625;51.212;5.952;2022-12-10T15:11:07;50.50;;;19.20;;
72590;SDS011;60625;51.212;5.952;2022-12-10T15:16:20;57.40;;;19.90;;
72590;SDS011;60625;51.212;5.952;2022-12-10T15:21:41;60.90;;;22.00;;
72590;SDS011;60625;51.212;5.952;2022-12-10T15:26:45;58.20;;;20.90;;
72590;SDS011;60625;51.212;5.952;2022-12-10T15:31:55;58.80;;;19.90;;
72590;SDS011;60625;51.212;5.952;2022-12-10T15:37:02;52.00;;;18.00;;
72590;SDS011;60625;51.212;5.952;2022-12-10T15:42:08;45.80;;;16.80;;
72590;SDS011;60625;51.212;5.952;2022-12-10T15:47:20;53.90;;;18.80;;
72590;SDS011;60625;51.212;5.952;2022-12-10T15:52:26;54.10;;;19.10;;
72590;SDS011;60625;51.212;5.952;2022-12-10T15:57:34;63.50;;;23.20;;
72590;SDS011;60625;51.212;5.952;2022-12-10T16:07:54;58.00;;;20.40;;
72590;SDS011;60625;51.212;5.952;2022-12-10T16:13:02;58.50;;;19.30;;
72590;SDS011;60625;51.212;5.952;2022-12-10T16:18:09;51.20;;;19.00;;
72590;SDS011;60625;51.212;5.952;2022-12-10T16:23:11;62.50;;;19.90;;
72590;SDS011;60625;51.212;5.952;2022-12-10T16:28:14;59.50;;;20.50;;
72590;SDS011;60625;51.212;5.952;2022-12-10T16:33:20;56.70;;;22.70;;
72590;SDS011;60625;51.212;5.952;2022-12-10T16:38:23;54.00;;;19.60;;
72590;SDS011;60625;51.212;5.952;2022-12-10T16:43:27;57.10;;;18.80;;
72590;SDS011;60625;51.212;5.952;2022-12-10T16:48:28;56.80;;;20.60;;
72590;SDS011;60625;51.212;5.952;2022-12-10T16:53:29;60.80;;;21.60;;
72590;SDS011;60625;51.212;5.952;2022-12-10T16:58:34;62.70;;;19.80;;
72590;SDS011;60625;51.212;5.952;2022-12-10T17:03:35;63.00;;;19.80;;
72590;SDS011;60625;51.212;5.952;2022-12-10T17:08:35;58.80;;;19.80;;
72590;SDS011;60625;51.212;5.952;2022-12-10T17:13:36;58.60;;;18.80;;
72590;SDS011;60625;51.212;5.952;2022-12-10T17:18:37;61.30;;;18.60;;
72590;SDS011;60625;51.212;5.952;2022-12-10T17:23:37;59.80;;;19.50;;
72590;SDS011;60625;51.212;5.952;2022-12-10T17:28:38;63.30;;;19.50;;
72590;SDS011;60625;51.212;5.952;2022-12-10T17:33:38;58.20;;;19.30;;
72590;SDS011;60625;51.212;5.952;2022-12-10T17:38:39;55.40;;;16.50;;
72590;SDS011;60625;51.212;5.952;2022-12-10T17:43:39;53.00;;;15.70;;
72590;SDS011;60625;51.212;5.952;2022-12-10T17:48:40;53.70;;;17.20;;
72590;SDS011;60625;51.212;5.952;2022-12-10T17:53:41;62.40;;;17.40;;
72590;SDS011;60625;51.212;5.952;2022-12-10T17:58:43;51.90;;;17.10;;
72590;SDS011;60625;51.212;5.952;2022-12-10T18:03:44;50.30;;;15.10;;
72590;SDS011;60625;51.212;5.952;2022-12-10T18:08:46;58.80;;;19.40;;
72590;SDS011;60625;51.212;5.952;2022-12-10T18:13:47;60.60;;;18.20;;
72590;SDS011;60625;51.212;5.952;2022-12-10T18:18:48;62.50;;;18.10;;
72590;SDS011;60625;51.212;5.952;2022-12-10T18:23:49;57.30;;;18.30;;
72590;SDS011;60625;51.212;5.952;2022-12-10T18:28:51;56.20;;;17.00;;
72590;SDS011;60625;51.212;5.952;2022-12-10T18:33:56;55.50;;;18.50;;
72590;SDS011;60625;51.212;5.952;2022-12-10T18:39:01;55.00;;;16.80;;
72590;SDS011;60625;51.212;5.952;2022-12-10T18:44:04;58.00;;;16.30;;
72590;SDS011;60625;51.212;5.952;2022-12-10T18:49:04;58.70;;;17.00;;
72590;SDS011;60625;51.212;5.952;2022-12-10T18:54:05;53.80;;;16.60;;
72590;SDS011;60625;51.212;5.952;2022-12-10T18:59:12;56.10;;;16.90;;
72590;SDS011;60625;51.212;5.952;2022-12-10T19:04:14;51.30;;;17.80;;
72590;SDS011;60625;51.212;5.952;2022-12-10T19:09:16;53.70;;;17.70;;
72590;SDS011;60625;51.212;5.952;2022-12-10T19:14:18;53.30;;;17.40;;
72590;SDS011;60625;51.212;5.952;2022-12-10T19:19:19;48.80;;;15.90;;
72590;SDS011;60625;51.212;5.952;2022-12-10T19:24:20;58.60;;;18.20;;
72590;SDS011;60625;51.212;5.952;2022-12-10T19:29:21;51.50;;;18.00;;
72590;SDS011;60625;51.212;5.952;2022-12-10T19:34:22;55.00;;;17.20;;
72590;SDS011;60625;51.212;5.952;2022-12-10T19:39:23;48.10;;;17.00;;
72590;SDS011;60625;51.212;5.952;2022-12-10T19:44:24;43.10;;;15.00;;
72590;SDS011;60625;51.212;5.952;2022-12-10T19:49:24;50.70;;;16.60;;
72590;SDS011;60625;51.212;5.952;2022-12-10T19:54:25;54.30;;;17.40;;
72590;SDS011;60625;51.212;5.952;2022-12-10T19:59:25;52.60;;;16.60;;
72590;SDS011;60625;51.212;5.952;2022-12-10T20:04:26;45.40;;;16.20;;
72590;SDS011;60625;51.212;5.952;2022-12-10T20:09:27;56.40;;;19.70;;
72590;SDS011;60625;51.212;5.952;2022-12-10T20:14:28;53.60;;;17.60;;
72590;SDS011;60625;51.212;5.952;2022-12-10T20:19:28;55.10;;;17.10;;
72590;SDS011;60625;51.212;5.952;2022-12-10T20:24:29;56.00;;;17.30;;
72590;SDS011;60625;51.212;5.952;2022-12-10T20:29:30;57.90;;;16.90;;
72590;SDS011;60625;51.212;5.952;2022-12-10T20:34:30;61.90;;;18.90;;
72590;SDS011;60625;51.212;5.952;2022-12-10T20:39:32;59.00;;;18.40;;
72590;SDS011;60625;51.212;5.952;2022-12-10T20:44:34;48.80;;;16.20;;
72590;SDS011;60625;51.212;5.952;2022-12-10T20:49:35;54.90;;;17.70;;
72590;SDS011;60625;51.212;5.952;2022-12-10T20:54:35;54.00;;;17.20;;
72590;SDS011;60625;51.212;5.952;2022-12-10T20:59:36;48.50;;;15.90;;
72590;SDS011;60625;51.212;5.952;2022-12-10T21:04:37;49.60;;;16.60;;
72590;SDS011;60625;51.212;5.952;2022-12-10T21:09:38;57.40;;;17.70;;
72590;SDS011;60625;51.212;5.952;2022-12-10T21:14:38;47.60;;;15.10;;
72590;SDS011;60625;51.212;5.952;2022-12-10T21:19:39;43.30;;;14.50;;
72590;SDS011;60625;51.212;5.952;2022-12-10T21:24:39;45.70;;;14.90;;
72590;SDS011;60625;51.212;5.952;2022-12-10T21:29:40;40.90;;;13.40;;
72590;SDS011;60625;51.212;5.952;2022-12-10T21:34:41;54.20;;;15.10;;
72590;SDS011;60625;51.212;5.952;2022-12-10T21:39:41;41.50;;;12.50;;
72590;SDS011;60625;51.212;5.952;2022-12-10T21:44:42;42.90;;;13.40;;
72590;SDS011;60625;51.212;5.952;2022-12-10T21:49:42;41.40;;;13.90;;
72590;SDS011;60625;51.212;5.952;2022-12-10T21:54:43;42.10;;;13.30;;
72590;SDS011;60625;51.212;5.952;2022-12-10T21:59:43;43.40;;;13.50;;
72590;SDS011;60625;51.212;5.952;2022-12-10T22:04:44;40.50;;;13.40;;
72590;SDS011;60625;51.212;5.952;2022-12-10T22:09:45;48.80;;;16.20;;
72590;SDS011;60625;51.212;5.952;2022-12-10T22:14:45;42.10;;;14.10;;
72590;SDS011;60625;51.212;5.952;2022-12-10T22:19:46;37.70;;;12.00;;
72590;SDS011;60625;51.212;5.952;2022-12-10T22:24:46;44.90;;;15.80;;
72590;SDS011;60625;51.212;5.952;2022-12-10T22:29:47;40.50;;;12.30;;
72590;SDS011;60625;51.212;5.952;2022-12-10T22:34:47;34.60;;;11.50;;
72590;SDS011;60625;51.212;5.952;2022-12-10T22:39:48;38.70;;;12.80;;
72590;SDS011;60625;51.212;5.952;2022-12-10T22:44:48;45.10;;;13.50;;
72590;SDS011;60625;51.212;5.952;2022-12-10T22:49:49;46.00;;;14.80;;
72590;SDS011;60625;51.212;5.952;2022-12-10T22:54:49;53.70;;;15.70;;
72590;SDS011;60625;51.212;5.952;2022-12-10T22:59:50;53.10;;;16.30;;
72590;SDS011;60625;51.212;5.952;2022-12-10T23:04:51;53.10;;;16.20;;
72590;SDS011;60625;51.212;5.952;2022-12-10T23:09:52;51.00;;;16.40;;
72590;SDS011;60625;51.212;5.952;2022-12-10T23:14:52;55.10;;;17.50;;
72590;SDS011;60625;51.212;5.952;2022-12-10T23:19:52;50.50;;;16.30;;
72590;SDS011;60625;51.212;5.952;2022-12-10T23:24:53;54.80;;;17.60;;
72590;SDS011;60625;51.212;5.952;2022-12-10T23:29:55;48.30;;;17.00;;
72590;SDS011;60625;51.212;5.952;2022-12-10T23:34:55;52.20;;;18.30;;
72590;SDS011;60625;51.212;5.952;2022-12-10T23:39:56;48.00;;;16.50;;
72590;SDS011;60625;51.212;5.952;2022-12-10T23:44:57;40.70;;;15.30;;
72590;SDS011;60625;51.212;5.952;2022-12-10T23:49:57;49.20;;;16.40;;
72590;SDS011;60625;51.212;5.952;2022-12-10T23:54:58;46.40;;;16.60;;
72590;SDS011;60625;51.212;5.952;2022-12-10T23:59:59;45.60;;;17.10;;
